createdAt,value
2019-05-14T00:02:02.552Z,84.20
2019-05-14T00:04:35.594Z,84.20
2019-05-14T00:07:12.169Z,84.20
2019-05-14T00:09:47.293Z,84.10
2019-05-14T00:12:22.418Z,84.10
2019-05-14T00:14:57.384Z,84.40
2019-05-14T00:17:37.861Z,83.20
2019-05-14T00:20:13.533Z,83.40
2019-05-14T00:22:52.212Z,83.10
2019-05-14T00:25:31.322Z,82.80
2019-05-14T00:28:04.995Z,82.50
2019-05-14T00:30:42.078Z,82.20
2019-05-14T00:33:15.658Z,82.20
2019-05-14T00:35:51.452Z,82.10
2019-05-14T00:38:25.737Z,82.40
2019-05-14T00:41:02.050Z,82.40
2019-05-14T00:43:37.758Z,82.00
2019-05-14T00:46:12.574Z,81.70
2019-05-14T00:48:51.252Z,81.30
2019-05-14T00:51:25.933Z,80.80
2019-05-14T00:54:01.719Z,80.70
2019-05-14T00:56:37.243Z,80.00
2019-05-14T00:59:11.944Z,79.40
2019-05-14T01:01:46.842Z,79.30
2019-05-14T01:04:22.274Z,79.00
2019-05-14T01:06:56.987Z,78.60
2019-05-14T01:09:31.632Z,80.10
2019-05-14T01:12:06.196Z,79.40
2019-05-14T01:14:42.345Z,79.10
2019-05-14T01:17:16.726Z,79.00
2019-05-14T01:19:51.372Z,79.00
2019-05-14T01:22:25.666Z,79.10
2019-05-14T01:25:01.686Z,79.20
2019-05-14T01:27:36.230Z,79.10
2019-05-14T01:30:12.446Z,78.80
2019-05-14T01:32:46.721Z,78.70
2019-05-14T01:35:22.216Z,77.80
2019-05-14T01:37:57.905Z,76.20
2019-05-14T01:40:33.492Z,75.30
2019-05-14T01:43:08.061Z,75.50
2019-05-14T01:45:42.366Z,75.60
2019-05-14T01:48:18.048Z,75.50
2019-05-14T01:50:52.755Z,75.50
2019-05-14T01:53:27.226Z,75.60
2019-05-14T01:56:04.351Z,75.80
2019-05-14T01:58:41.739Z,75.60
2019-05-14T02:01:21.685Z,75.60
2019-05-14T02:03:56.457Z,75.30
2019-05-14T02:06:34.238Z,76.20
2019-05-14T02:09:12.508Z,76.70
2019-05-14T02:11:53.676Z,76.80
2019-05-14T02:14:31.310Z,77.00
2019-05-14T02:17:05.894Z,76.80
2019-05-14T02:19:52.778Z,76.90
2019-05-14T02:22:36.192Z,77.00
2019-05-14T02:25:11.609Z,77.20
2019-05-14T02:27:47.995Z,77.80
2019-05-14T02:30:28.547Z,78.30
2019-05-14T02:32:59.605Z,78.70
2019-05-14T02:35:39.670Z,78.70
2019-05-14T02:38:13.076Z,77.90
2019-05-14T02:40:49.388Z,77.70
2019-05-14T02:43:23.479Z,76.90
2019-05-14T02:46:10.620Z,76.60
2019-05-14T02:48:33.902Z,76.90
2019-05-14T02:51:10.497Z,77.30
2019-05-14T02:53:44.275Z,77.10
2019-05-14T02:56:20.398Z,76.20
2019-05-14T02:58:54.664Z,75.40
2019-05-14T03:01:30.170Z,75.00
2019-05-14T03:04:04.980Z,74.40
2019-05-14T03:06:41.984Z,73.50
2019-05-14T03:09:20.074Z,72.70
2019-05-14T03:11:53.818Z,73.70
2019-05-14T03:14:33.250Z,73.20
2019-05-14T03:17:10.439Z,72.40
2019-05-14T03:19:50.396Z,71.70
2019-05-14T03:22:31.950Z,71.10
2019-05-14T03:25:00.867Z,70.70
2019-05-14T03:27:35.702Z,70.50
2019-05-14T03:30:12.328Z,70.20
2019-05-14T03:32:52.161Z,70.00
2019-05-14T03:35:32.804Z,70.00
2019-05-14T03:38:00.539Z,69.70
2019-05-14T03:40:35.272Z,70.20
2019-05-14T03:43:10.119Z,70.00
2019-05-14T03:45:44.881Z,69.80
2019-05-14T03:48:19.989Z,69.20
2019-05-14T03:50:55.373Z,68.90
2019-05-14T03:53:30.099Z,69.00
2019-05-14T03:56:05.266Z,68.60
2019-05-14T03:58:39.545Z,68.50
2019-05-14T04:01:13.825Z,68.50
2019-05-14T04:03:50.389Z,68.70
2019-05-14T04:06:34.145Z,68.90
2019-05-14T04:09:10.779Z,69.30
2019-05-14T04:11:46.318Z,69.50
2019-05-14T04:14:21.249Z,69.60
2019-05-14T04:17:05.280Z,69.40
2019-05-14T04:19:33.632Z,69.70
2019-05-14T04:22:10.028Z,69.30
2019-05-14T04:24:44.962Z,69.30
2019-05-14T04:27:20.303Z,69.60
2019-05-14T04:29:58.896Z,69.90
2019-05-14T04:32:33.527Z,70.00
2019-05-14T04:35:09.538Z,70.10
2019-05-14T04:37:44.277Z,70.20
2019-05-14T04:40:19.973Z,70.30
2019-05-14T04:42:54.592Z,70.40
2019-05-14T04:45:29.799Z,70.70
2019-05-14T04:48:24.198Z,70.50
2019-05-14T04:50:41.371Z,70.60
2019-05-14T04:53:33.572Z,70.50
2019-05-14T04:56:09.753Z,71.10
2019-05-14T04:58:49.249Z,70.20
2019-05-14T05:01:24.208Z,70.00
2019-05-14T05:04:00.657Z,69.60
2019-05-14T05:06:42.285Z,69.40
2019-05-14T05:09:19.774Z,69.50
2019-05-14T05:11:54.011Z,69.60
2019-05-14T05:14:29.661Z,69.90
2019-05-14T05:17:04.293Z,70.00
2019-05-14T05:19:44.779Z,70.70
2019-05-14T05:22:15.776Z,70.20
2019-05-14T05:24:50.684Z,70.30
2019-05-14T05:27:25.628Z,70.20
2019-05-14T05:30:00.353Z,70.40
2019-05-14T05:32:35.387Z,70.70
2019-05-14T05:35:10.192Z,70.80
2019-05-14T05:37:44.710Z,70.80
2019-05-14T05:40:19.841Z,70.90
2019-05-14T05:42:54.526Z,71.10
2019-05-14T05:45:29.164Z,70.80
2019-05-14T05:48:04.736Z,70.80
2019-05-14T05:50:39.754Z,70.70
2019-05-14T05:53:14.262Z,70.80
2019-05-14T05:55:50.081Z,70.50
2019-05-14T05:58:24.897Z,70.20
2019-05-14T06:00:59.847Z,70.20
2019-05-14T06:03:35.435Z,70.50
2019-05-14T06:06:13.398Z,70.10
2019-05-14T06:08:46.075Z,70.10
2019-05-14T06:11:20.524Z,70.50
2019-05-14T06:13:55.272Z,70.00
2019-05-14T06:16:38.480Z,70.10
2019-05-14T06:19:13.326Z,69.90
2019-05-14T06:21:49.078Z,69.90
2019-05-14T06:24:24.219Z,69.80
2019-05-14T06:26:59.116Z,69.50
2019-05-14T06:29:33.586Z,69.80
2019-05-14T06:32:09.255Z,69.90
2019-05-14T06:34:44.307Z,69.80
2019-05-14T06:37:19.809Z,69.70
2019-05-14T06:39:54.775Z,69.60
2019-05-14T06:42:29.217Z,69.60
2019-05-14T06:45:03.791Z,69.40
2019-05-14T06:47:39.407Z,69.40
2019-05-14T06:50:14.114Z,69.20
2019-05-14T06:52:49.209Z,69.20
2019-05-14T06:55:23.831Z,69.40
2019-05-14T06:57:58.615Z,69.20
2019-05-14T07:00:34.797Z,69.30
2019-05-14T07:03:10.266Z,69.30
2019-05-14T07:05:44.697Z,69.30
2019-05-14T07:08:19.174Z,69.40
2019-05-14T07:10:53.692Z,69.50
2019-05-14T07:13:29.256Z,70.10
2019-05-14T07:16:04.021Z,69.10
2019-05-14T07:18:50.706Z,69.00
2019-05-14T07:21:14.753Z,68.80
2019-05-14T07:23:49.533Z,68.40
2019-05-14T07:26:23.868Z,67.70
2019-05-14T07:28:59.051Z,67.70
2019-05-14T07:31:33.912Z,67.70
2019-05-14T07:34:09.021Z,67.50
2019-05-14T07:36:43.719Z,67.30
2019-05-14T07:39:18.755Z,67.30
2019-05-14T07:41:53.483Z,67.20
2019-05-14T07:44:29.616Z,67.40
2019-05-14T07:47:05.212Z,67.80
2019-05-14T07:49:40.164Z,67.90
2019-05-14T07:52:14.996Z,68.00
2019-05-14T07:54:49.625Z,67.80
2019-05-14T07:57:24.157Z,67.50
2019-05-14T07:59:58.995Z,67.40
2019-05-14T08:02:33.842Z,66.90
2019-05-14T08:05:08.822Z,66.40
2019-05-14T08:07:43.573Z,66.30
2019-05-14T08:10:18.603Z,66.70
2019-05-14T08:12:53.456Z,66.70
2019-05-14T08:15:28.599Z,66.70
2019-05-14T08:18:03.184Z,66.70
2019-05-14T08:20:38.012Z,66.70
2019-05-14T08:23:12.260Z,66.70
2019-05-14T08:25:48.128Z,66.20
2019-05-14T08:28:23.169Z,66.10
2019-05-14T08:30:58.506Z,65.50
2019-05-14T08:33:34.586Z,65.50
2019-05-14T08:36:09.338Z,64.80
2019-05-14T08:38:45.572Z,64.40
2019-05-14T08:41:20.886Z,64.00
2019-05-14T08:43:56.039Z,63.90
2019-05-14T08:46:30.516Z,63.60
2019-05-14T08:49:05.094Z,63.80
2019-05-14T08:51:39.439Z,63.70
2019-05-14T08:54:14.289Z,64.20
2019-05-14T08:56:49.210Z,64.40
2019-05-14T08:59:23.787Z,64.30
2019-05-14T09:02:06.287Z,64.00
2019-05-14T09:04:34.453Z,64.00
2019-05-14T09:07:09.631Z,64.80
2019-05-14T09:09:44.576Z,65.00
2019-05-14T09:19:15.433Z,64.80
2019-05-14T09:21:50.148Z,65.10
2019-05-14T09:24:24.895Z,64.80
2019-05-14T09:26:59.729Z,64.90
2019-05-14T09:29:34.492Z,65.50
2019-05-14T09:32:09.700Z,64.80
2019-05-14T09:34:44.452Z,64.60
2019-05-14T09:37:19.397Z,64.80
2019-05-14T09:39:54.005Z,65.10
2019-05-14T09:42:28.745Z,64.90
2019-05-14T09:45:03.763Z,64.40
2019-05-14T09:47:41.216Z,64.70
2019-05-14T09:50:22.019Z,64.50
2019-05-14T09:52:52.335Z,64.30
2019-05-14T09:55:28.189Z,64.50
2019-05-14T09:58:02.868Z,64.80
2019-05-14T10:00:38.969Z,65.00
2019-05-14T10:03:13.532Z,64.30
2019-05-14T10:05:50.181Z,64.00
2019-05-14T10:08:24.565Z,64.00
2019-05-14T10:11:00.592Z,63.90
2019-05-14T10:13:35.872Z,63.90
2019-05-14T10:16:10.136Z,63.20
2019-05-14T10:18:44.690Z,62.80
2019-05-14T10:21:19.843Z,64.20
2019-05-14T10:23:54.614Z,63.30
2019-05-14T10:26:29.136Z,63.40
2019-05-14T10:29:04.518Z,63.30
2019-05-14T10:31:39.875Z,63.20
2019-05-14T10:34:14.034Z,63.20
2019-05-14T10:36:48.921Z,63.40
2019-05-14T10:39:24.015Z,63.20
2019-05-14T10:41:58.217Z,63.00
2019-05-14T10:44:32.912Z,62.80
2019-05-14T10:47:09.262Z,62.90
2019-05-14T10:49:43.718Z,63.00
2019-05-14T10:52:19.719Z,63.10
2019-05-14T10:54:56.297Z,63.40
2019-05-14T10:57:33.388Z,63.50
2019-05-14T11:00:09.108Z,63.60
2019-05-14T11:02:44.322Z,63.70
2019-05-14T11:05:19.254Z,63.90
2019-05-14T11:07:54.063Z,64.10
2019-05-14T11:10:29.792Z,64.30
2019-05-14T11:13:04.685Z,64.60
2019-05-14T11:15:39.638Z,64.80
2019-05-14T11:18:14.664Z,64.70
2019-05-14T11:20:51.457Z,65.00
2019-05-14T11:23:25.970Z,65.20
2019-05-14T11:26:00.480Z,65.50
2019-05-14T11:28:34.966Z,65.70
2019-05-14T11:31:10.581Z,66.00
2019-05-14T11:33:45.452Z,66.20
2019-05-14T11:36:20.163Z,67.20
2019-05-14T11:38:55.300Z,66.60
2019-05-14T11:41:32.901Z,67.20
2019-05-14T11:44:17.801Z,67.60
2019-05-14T11:46:58.124Z,67.90
2019-05-14T11:49:28.800Z,68.10
2019-05-14T11:52:07.734Z,68.50
2019-05-14T11:54:40.902Z,68.80
2019-05-14T11:57:15.359Z,69.00
2019-05-14T11:59:53.314Z,69.30
2019-05-14T12:02:29.143Z,69.40
2019-05-14T12:05:04.003Z,69.50
2019-05-14T12:07:50.962Z,69.70
2019-05-14T12:10:38.713Z,69.70
2019-05-14T12:13:14.045Z,69.80
2019-05-14T12:15:59.252Z,70.00
2019-05-14T12:18:35.586Z,70.30
2019-05-14T12:21:18.651Z,70.60
2019-05-14T12:24:06.229Z,70.70
2019-05-14T12:27:27.547Z,70.70
2019-05-14T12:29:33.726Z,70.90
2019-05-14T12:32:12.541Z,71.00
2019-05-14T12:34:52.994Z,71.20
2019-05-14T12:37:28.927Z,71.50
2019-05-14T12:40:03.932Z,71.60
2019-05-14T12:42:39.653Z,71.70
2019-05-14T12:45:18.802Z,72.00
2019-05-14T12:47:51.718Z,72.00
2019-05-14T12:50:26.829Z,72.20
2019-05-14T12:53:02.042Z,72.20
2019-05-14T12:55:39.820Z,72.50
2019-05-14T12:58:20.715Z,72.50
2019-05-14T13:00:55.598Z,72.50
2019-05-14T13:03:34.978Z,72.40
2019-05-14T13:06:10.262Z,72.50
2019-05-14T13:08:48.962Z,72.80
2019-05-14T13:11:22.324Z,73.00
2019-05-14T13:13:59.317Z,72.90
2019-05-14T13:16:39.657Z,73.20
2019-05-14T13:19:20.498Z,73.40
2019-05-14T13:22:12.216Z,73.30
2019-05-14T13:24:49.064Z,73.40
2019-05-14T13:27:33.644Z,73.60
2019-05-14T13:30:11.276Z,73.80
2019-05-14T13:32:48.922Z,73.80
2019-05-14T13:35:24.900Z,74.20
2019-05-14T13:38:02.028Z,74.60
2019-05-14T13:40:49.193Z,75.30
2019-05-14T13:43:30.556Z,74.60
2019-05-14T13:46:07.274Z,74.60
2019-05-14T13:48:46.074Z,74.80
2019-05-14T13:51:20.772Z,74.90
2019-05-14T13:53:58.759Z,74.80
2019-05-14T13:56:32.318Z,74.90
2019-05-14T13:59:09.083Z,75.10
2019-05-14T14:01:42.914Z,75.10
2019-05-14T14:04:18.341Z,75.40
2019-05-14T14:06:55.860Z,75.50
2019-05-14T14:09:33.388Z,75.50
2019-05-14T14:12:08.547Z,75.50
2019-05-14T14:14:44.545Z,75.60
2019-05-14T14:17:19.704Z,75.50
2019-05-14T14:19:55.843Z,75.50
2019-05-14T14:22:32.411Z,75.70
2019-05-14T14:25:08.843Z,75.80
2019-05-14T14:27:43.295Z,75.90
2019-05-14T14:30:19.534Z,75.90
2019-05-14T14:32:54.481Z,76.10
2019-05-14T14:35:31.072Z,76.00
2019-05-14T14:38:08.699Z,76.10
2019-05-14T14:40:48.588Z,76.10
2019-05-14T14:43:20.632Z,76.30
2019-05-14T14:45:55.259Z,76.50
2019-05-14T14:48:30.533Z,76.50
2019-05-14T14:51:08.343Z,76.60
2019-05-14T14:53:53.309Z,76.60
2019-05-14T14:56:18.908Z,76.60
2019-05-14T14:58:54.999Z,76.70
2019-05-14T15:01:30.564Z,76.70
2019-05-14T15:04:05.413Z,76.90
2019-05-14T15:06:40.199Z,77.00
2019-05-14T15:09:14.722Z,77.10
2019-05-14T15:11:49.678Z,77.10
2019-05-14T15:14:24.370Z,77.30
2019-05-14T15:16:58.862Z,77.10
2019-05-14T15:19:33.276Z,77.30
2019-05-14T15:22:08.780Z,77.40
2019-05-14T15:24:43.381Z,77.30
2019-05-14T15:27:18.877Z,77.50
2019-05-14T15:29:53.787Z,77.60
2019-05-14T15:32:30.226Z,77.60
2019-05-14T15:35:04.732Z,77.70
2019-05-14T15:37:42.844Z,77.70
2019-05-14T15:40:15.998Z,77.80
2019-05-14T15:42:51.666Z,77.80
2019-05-14T15:45:28.650Z,77.90
2019-05-14T15:48:03.919Z,77.90
2019-05-14T15:50:38.859Z,77.90
2019-05-14T15:53:14.036Z,78.00
2019-05-14T15:55:49.853Z,78.00
2019-05-14T15:58:24.384Z,77.90
2019-05-14T16:01:01.177Z,78.10
2019-05-14T16:03:35.976Z,78.20
2019-05-14T16:06:11.149Z,78.40
2019-05-14T16:08:48.639Z,78.50
2019-05-14T16:11:22.019Z,78.50
2019-05-14T16:13:56.575Z,78.40
2019-05-14T16:16:31.121Z,78.40
2019-05-14T16:19:08.081Z,78.50
2019-05-14T16:21:41.825Z,78.50
2019-05-14T16:24:22.456Z,78.80
2019-05-14T16:26:59.436Z,78.80
2019-05-14T16:29:44.179Z,78.70
2019-05-14T16:32:12.856Z,78.80
2019-05-14T16:34:48.885Z,78.50
2019-05-14T16:37:28.047Z,78.40
2019-05-14T16:40:02.608Z,78.30
2019-05-14T16:42:39.778Z,78.50
2019-05-14T16:45:14.478Z,79.10
2019-05-14T16:47:49.325Z,78.70
2019-05-14T16:50:23.890Z,78.80
2019-05-14T16:52:58.890Z,79.00
2019-05-14T16:55:33.834Z,79.10
2019-05-14T16:58:08.985Z,79.20
2019-05-14T17:00:43.712Z,79.30
2019-05-14T17:03:19.043Z,79.20
2019-05-14T17:05:53.999Z,79.40
2019-05-14T17:08:28.678Z,79.30
2019-05-14T17:11:03.154Z,79.30
2019-05-14T17:13:38.150Z,79.20
2019-05-14T17:16:13.364Z,79.10
2019-05-14T17:18:48.604Z,79.10
2019-05-14T17:21:23.639Z,79.20
2019-05-14T17:23:58.188Z,78.60
2019-05-14T17:26:35.020Z,79.20
2019-05-14T17:29:10.206Z,79.00
2019-05-14T17:31:45.157Z,78.80
2019-05-14T17:34:19.698Z,78.80
2019-05-14T17:36:54.546Z,78.80
2019-05-14T17:39:29.221Z,78.90
2019-05-14T17:42:04.960Z,79.10
2019-05-14T17:44:39.217Z,79.00
2019-05-14T17:47:14.899Z,79.10
2019-05-14T17:49:49.341Z,79.10
2019-05-14T17:52:24.812Z,79.20
2019-05-14T17:54:59.729Z,79.10
2019-05-14T17:57:35.823Z,79.10
2019-05-14T18:00:11.253Z,79.10
2019-05-14T18:02:48.555Z,79.10
2019-05-14T18:05:22.929Z,78.30
2019-05-14T18:07:59.364Z,77.30
2019-05-14T18:10:34.582Z,75.90
2019-05-14T18:13:09.422Z,74.80
2019-05-14T18:15:44.387Z,74.50
2019-05-14T18:18:19.172Z,74.50
2019-05-14T18:20:54.154Z,74.00
2019-05-14T18:23:29.072Z,74.30
2019-05-14T18:26:08.634Z,74.60
2019-05-14T18:28:41.369Z,74.50
2019-05-14T18:31:19.618Z,74.60
2019-05-14T18:33:52.232Z,74.80
2019-05-14T18:36:28.502Z,74.90
2019-05-14T18:39:03.240Z,75.10
2019-05-14T18:41:38.937Z,76.10
2019-05-14T18:44:14.041Z,75.80
2019-05-14T18:46:48.734Z,76.30
2019-05-14T18:49:23.876Z,76.40
2019-05-14T18:51:59.687Z,76.50
2019-05-14T18:54:34.440Z,76.50
2019-05-14T18:57:12.012Z,76.10
2019-05-14T18:59:44.806Z,76.10
2019-05-14T19:02:21.026Z,76.30
2019-05-14T19:04:57.770Z,76.30
2019-05-14T19:07:32.122Z,76.40
2019-05-14T19:10:09.115Z,76.40
2019-05-14T19:12:42.657Z,76.50
2019-05-14T19:15:18.502Z,76.70
2019-05-14T19:17:53.297Z,76.40
2019-05-14T19:20:28.270Z,76.60
2019-05-14T19:23:02.878Z,76.70
2019-05-14T19:25:38.907Z,76.60
2019-05-14T19:28:13.723Z,76.70
2019-05-14T19:30:48.938Z,76.60
2019-05-14T19:33:23.710Z,76.60
2019-05-14T19:35:58.341Z,77.40
2019-05-14T19:38:32.913Z,76.70
2019-05-14T19:41:08.609Z,77.70
2019-05-14T19:43:43.805Z,76.90
2019-05-14T19:46:18.498Z,77.10
2019-05-14T19:48:53.011Z,77.20
2019-05-14T19:51:27.977Z,77.30
2019-05-14T19:54:02.663Z,77.40
2019-05-14T19:56:52.415Z,77.30
2019-05-14T19:59:13.538Z,77.40
2019-05-14T20:01:48.739Z,77.50
2019-05-14T20:04:23.524Z,77.80
2019-05-14T20:06:57.975Z,77.90
2019-05-14T20:09:32.853Z,78.00
2019-05-14T20:12:07.320Z,77.90
2019-05-14T20:14:41.712Z,78.20
2019-05-14T20:17:16.283Z,78.20
2019-05-14T20:19:50.716Z,78.40
2019-05-14T20:22:25.409Z,78.40
2019-05-14T20:24:59.997Z,78.50
2019-05-14T20:27:34.575Z,78.30
2019-05-14T20:30:09.544Z,78.80
2019-05-14T20:32:44.429Z,78.10
2019-05-14T20:35:30.409Z,78.30
2019-05-14T20:37:54.929Z,78.40
2019-05-14T20:40:29.194Z,78.40
2019-05-14T20:43:03.225Z,78.40
2019-05-14T20:45:39.133Z,78.60
2019-05-14T20:48:14.055Z,78.60
2019-05-14T20:50:49.332Z,78.80
2019-05-14T20:53:25.850Z,79.10
2019-05-14T20:56:00.543Z,79.60
2019-05-14T20:58:34.910Z,78.80
2019-05-14T21:01:11.479Z,78.70
2019-05-14T21:03:47.899Z,78.40
2019-05-14T21:06:21.689Z,78.50
2019-05-14T21:08:58.477Z,77.30
2019-05-14T21:11:33.027Z,77.40
2019-05-14T21:14:08.961Z,77.60
2019-05-14T21:16:43.787Z,78.20
2019-05-14T21:19:18.055Z,78.70
2019-05-14T21:21:52.910Z,79.50
2019-05-14T21:24:29.496Z,79.80
2019-05-14T21:27:03.454Z,80.40
2019-05-14T21:29:38.513Z,80.50
2019-05-14T21:32:13.271Z,80.80
2019-05-14T21:34:49.137Z,81.10
2019-05-14T21:37:23.879Z,81.50
2019-05-14T21:39:59.057Z,81.60
2019-05-14T21:42:33.691Z,81.70
2019-05-14T21:45:09.841Z,81.90
2019-05-14T21:47:43.794Z,82.50
2019-05-14T21:50:18.466Z,82.30
2019-05-14T21:52:53.280Z,82.50
2019-05-14T21:55:33.782Z,82.10
2019-05-14T21:58:13.869Z,82.70
2019-05-14T22:00:52.250Z,82.80
2019-05-14T22:03:29.152Z,82.80
2019-05-14T22:06:03.792Z,82.90
2019-05-14T22:08:39.401Z,83.10
2019-05-14T22:11:14.740Z,83.20
2019-05-14T22:13:49.733Z,83.20
2019-05-14T22:16:24.198Z,83.30
2019-05-14T22:18:59.341Z,83.30
2019-05-14T22:21:34.078Z,83.30
2019-05-14T22:24:08.636Z,83.20
2019-05-14T22:26:43.280Z,83.20
2019-05-14T22:29:17.961Z,83.30
2019-05-14T22:31:52.562Z,83.30
2019-05-14T22:34:34.372Z,83.20
2019-05-14T22:37:08.905Z,83.20
2019-05-14T22:40:04.643Z,83.10
2019-05-14T22:42:39.383Z,83.20
2019-05-14T22:45:35.812Z,83.30
2019-05-14T22:48:10.342Z,83.40
2019-05-14T22:50:45.285Z,83.30
2019-05-14T22:53:19.944Z,83.50
2019-05-14T22:55:54.540Z,83.60
2019-05-14T22:58:29.065Z,83.40
2019-05-14T23:01:14.416Z,83.40
2019-05-14T23:03:39.825Z,83.30
2019-05-14T23:06:14.724Z,83.20
2019-05-14T23:08:49.961Z,83.20
2019-05-14T23:11:24.597Z,83.20
2019-05-14T23:13:59.534Z,83.30
2019-05-14T23:16:38.254Z,83.10
2019-05-14T23:19:09.973Z,83.20
2019-05-14T23:21:44.905Z,83.00
2019-05-14T23:24:20.160Z,83.00
2019-05-14T23:26:58.334Z,83.10
2019-05-14T23:29:31.967Z,83.00
2019-05-14T23:32:08.129Z,82.90
2019-05-14T23:34:42.592Z,83.00
2019-05-14T23:37:18.140Z,82.90
2019-05-14T23:39:52.942Z,83.00
2019-05-14T23:42:28.059Z,83.20
2019-05-14T23:45:02.800Z,83.10
2019-05-14T23:47:38.348Z,83.10
2019-05-14T23:50:13.361Z,83.20
2019-05-14T23:52:49.381Z,83.30
2019-05-14T23:55:24.564Z,83.30
2019-05-14T23:57:59.022Z,83.40
